createdAt,value
2023-12-08T00:02:09.884Z,100761.32
2023-12-08T00:07:15.034Z,100773.40
2023-12-08T00:12:18.485Z,100771.46
2023-12-08T00:17:22.017Z,100767.58
2023-12-08T00:22:25.680Z,100746.27
2023-12-08T00:27:29.187Z,100743.00
2023-12-08T00:32:32.831Z,100752.23
2023-12-08T00:37:36.530Z,100751.67
2023-12-08T00:42:39.940Z,100753.81
2023-12-08T00:47:43.632Z,100749.75
2023-12-08T00:52:48.411Z,100756.52
2023-12-08T00:57:51.927Z,100752.42
2023-12-08T01:02:55.536Z,100750.85
2023-12-08T01:07:59.273Z,100751.98
2023-12-08T01:13:03.852Z,100755.49
2023-12-08T01:18:08.491Z,100747.10
2023-12-08T01:23:12.268Z,100751.38
2023-12-08T01:28:16.707Z,100755.05
2023-12-08T01:33:23.528Z,100749.56
2023-12-08T01:38:27.120Z,100754.10
2023-12-08T01:43:30.532Z,100755.10
2023-12-08T01:48:34.251Z,100761.61
2023-12-08T01:53:37.914Z,100763.82
2023-12-08T01:58:42.569Z,100748.62
2023-12-08T02:03:50.292Z,100747.93
2023-12-08T02:08:54.216Z,100757.59
2023-12-08T02:13:58.101Z,100759.40
2023-12-08T02:19:03.215Z,100770.33
2023-12-08T02:24:07.175Z,100772.48
2023-12-08T02:29:11.173Z,100770.69
2023-12-08T02:34:19.980Z,100771.47
2023-12-08T02:39:25.643Z,100777.94
2023-12-08T02:44:29.233Z,100777.39
2023-12-08T02:49:33.020Z,100773.87
2023-12-08T02:54:36.667Z,100775.45
2023-12-08T02:59:40.238Z,100781.20
2023-12-08T03:04:44.074Z,100778.56
2023-12-08T03:09:48.141Z,100778.35
2023-12-08T03:14:52.001Z,100779.13
2023-12-08T03:19:55.544Z,100782.05
2023-12-08T03:24:59.203Z,100778.45
2023-12-08T03:30:02.952Z,100781.44
2023-12-08T03:35:07.456Z,100774.54
2023-12-08T03:40:10.978Z,100772.59
2023-12-08T03:45:14.455Z,100765.70
2023-12-08T03:50:18.108Z,100759.41
2023-12-08T03:55:22.444Z,100757.33
2023-12-08T04:00:25.860Z,100754.69
2023-12-08T04:05:29.726Z,100745.20
2023-12-08T04:10:33.478Z,100745.11
2023-12-08T04:15:37.122Z,100735.56
2023-12-08T04:20:40.500Z,100743.05
2023-12-08T04:25:44.476Z,100743.52
2023-12-08T04:30:47.893Z,100740.06
2023-12-08T04:35:51.520Z,100732.06
2023-12-08T04:40:55.124Z,100725.23
2023-12-08T04:45:58.956Z,100723.35
2023-12-08T04:51:02.526Z,100729.16
2023-12-08T04:56:06.506Z,100734.27
2023-12-08T05:01:16.681Z,100730.04
2023-12-08T05:06:23.724Z,100730.33
2023-12-08T05:11:27.284Z,100733.17
2023-12-08T05:16:33.569Z,100738.57
2023-12-08T05:21:37.091Z,100734.20
2023-12-08T05:26:40.578Z,100733.45
2023-12-08T05:31:44.116Z,100732.39
2023-12-08T05:36:47.534Z,100731.08
2023-12-08T05:41:50.990Z,100722.34
2023-12-08T05:46:54.460Z,100722.51
2023-12-08T05:51:58.077Z,100726.73
2023-12-08T05:57:02.421Z,100719.77
2023-12-08T06:02:05.997Z,100710.01
2023-12-08T06:07:09.877Z,100716.23
2023-12-08T06:12:13.656Z,100719.98
2023-12-08T06:17:17.921Z,100721.87
2023-12-08T06:22:21.319Z,100721.90
2023-12-08T06:27:25.228Z,100729.20
2023-12-08T06:32:30.226Z,100739.31
2023-12-08T06:37:33.721Z,100743.05
2023-12-08T06:42:37.351Z,100755.27
2023-12-08T06:47:41.029Z,100758.98
2023-12-08T06:52:45.466Z,100766.40
2023-12-08T06:57:48.617Z,100767.16
2023-12-08T07:03:00.892Z,100771.59
2023-12-08T07:08:04.956Z,100769.42
2023-12-08T07:13:08.580Z,100765.06
2023-12-08T07:18:12.191Z,100758.79
2023-12-08T07:23:15.934Z,100746.27
2023-12-08T07:28:19.433Z,100755.40
2023-12-08T07:33:23.338Z,100751.44
2023-12-08T07:38:27.086Z,100752.52
2023-12-08T07:43:30.514Z,100755.77
2023-12-08T07:48:34.174Z,100753.55
2023-12-08T07:53:37.960Z,100767.79
2023-12-08T07:58:41.559Z,100775.19
2023-12-08T08:03:45.558Z,100769.91
2023-12-08T08:08:49.237Z,100766.23
2023-12-08T08:13:52.829Z,100763.00
2023-12-08T08:18:56.423Z,100754.48
2023-12-08T08:24:00.076Z,100738.84
2023-12-08T08:29:03.995Z,100734.46
2023-12-08T08:34:07.877Z,100737.20
2023-12-08T08:39:11.803Z,100735.55
2023-12-08T08:44:15.879Z,100729.30
2023-12-08T08:49:20.410Z,100726.08
2023-12-08T08:54:23.835Z,100727.78
2023-12-08T08:59:27.470Z,100727.15
2023-12-08T09:04:31.439Z,100731.46
2023-12-08T09:09:35.049Z,100717.09
2023-12-08T09:14:39.761Z,100721.27
2023-12-08T09:19:43.431Z,100718.30
2023-12-08T09:24:46.926Z,100719.41
2023-12-08T09:29:56.274Z,100714.27
2023-12-08T09:34:59.789Z,100713.98
2023-12-08T09:40:04.004Z,100719.44
2023-12-08T09:45:11.767Z,100719.15
2023-12-08T09:50:16.843Z,100715.59
2023-12-08T09:55:21.925Z,100701.52
2023-12-08T10:00:25.898Z,100691.86
2023-12-08T10:05:29.478Z,100676.46
2023-12-08T10:10:33.094Z,100665.88
2023-12-08T10:15:36.607Z,100643.60
2023-12-08T10:20:40.058Z,100629.61
2023-12-08T10:25:43.748Z,100638.10
2023-12-08T10:30:47.919Z,100647.78
2023-12-08T10:35:52.105Z,100654.44
2023-12-08T10:40:55.601Z,100647.00
2023-12-08T10:45:59.162Z,100640.85
2023-12-08T10:51:03.197Z,100641.95
2023-12-08T10:56:10.606Z,100625.94
2023-12-08T11:01:16.006Z,100618.54
2023-12-08T11:06:24.981Z,100617.47
2023-12-08T11:11:31.304Z,100629.19
2023-12-08T11:16:53.570Z,100647.08
2023-12-08T11:21:57.910Z,100650.65
2023-12-08T11:27:19.052Z,100658.90
2023-12-08T11:32:38.087Z,100647.34
2023-12-08T11:37:42.478Z,100643.14
2023-12-08T11:42:48.903Z,100623.23
2023-12-08T11:47:52.857Z,100611.70
2023-12-08T11:52:56.424Z,100617.23
2023-12-08T11:58:09.119Z,100616.04
2023-12-08T12:03:13.827Z,100618.60
2023-12-08T12:08:18.411Z,100623.48
2023-12-08T12:13:28.118Z,100619.68
2023-12-08T12:18:31.921Z,100617.99
2023-12-08T12:23:35.526Z,100604.94
2023-12-08T12:28:38.921Z,100590.25
2023-12-08T12:33:48.667Z,100576.67
2023-12-08T12:38:53.855Z,100575.12
2023-12-08T12:44:02.921Z,100563.39
2023-12-08T12:49:06.433Z,100554.90
2023-12-08T12:54:10.627Z,100549.97
2023-12-08T12:59:13.905Z,100542.52
2023-12-08T13:04:17.457Z,100544.73
2023-12-08T13:09:30.529Z,100549.90
2023-12-08T13:14:34.450Z,100547.73
2023-12-08T13:19:38.075Z,100548.33
2023-12-08T13:24:41.563Z,100552.21
2023-12-08T13:29:45.028Z,100564.15
2023-12-08T13:34:48.578Z,100564.08
2023-12-08T13:39:51.992Z,100564.58
2023-12-08T13:44:55.716Z,100566.23
2023-12-08T13:49:59.099Z,100565.05
2023-12-08T13:55:03.410Z,100571.11
2023-12-08T14:00:07.371Z,100567.17
2023-12-08T14:05:11.898Z,100577.21
2023-12-08T14:10:15.542Z,100587.55
2023-12-08T14:15:19.102Z,100589.03
2023-12-08T14:20:22.747Z,100587.86
2023-12-08T14:25:26.071Z,100578.98
2023-12-08T14:30:29.434Z,100567.27
2023-12-08T14:35:33.261Z,100552.48
2023-12-08T14:40:37.256Z,100538.89
2023-12-08T14:45:40.773Z,100544.68
2023-12-08T14:50:45.064Z,100543.52
2023-12-08T14:55:59.073Z,100551.24
2023-12-08T15:01:04.223Z,100551.40
2023-12-08T15:06:07.906Z,100551.30
2023-12-08T15:11:11.519Z,100556.27
2023-12-08T15:16:15.200Z,100560.50
2023-12-08T15:21:22.925Z,100563.10
2023-12-08T15:26:27.030Z,100562.36
2023-12-08T15:31:30.586Z,100556.84
2023-12-08T15:36:35.582Z,100559.08
2023-12-08T15:41:45.364Z,100559.86
2023-12-08T15:46:48.841Z,100563.23
2023-12-08T15:51:54.357Z,100563.59
2023-12-08T16:02:18.692Z,100538.81
2023-12-08T16:07:26.008Z,100539.95
2023-12-08T16:12:30.014Z,100522.94
2023-12-08T16:17:34.000Z,100526.40
2023-12-08T16:22:39.257Z,100530.35
2023-12-08T16:27:43.929Z,100520.66
2023-12-08T16:33:06.277Z,100507.42
2023-12-08T16:38:09.931Z,100505.37
2023-12-08T16:43:13.454Z,100509.23
2023-12-08T16:48:18.228Z,100505.73
2023-12-08T16:53:23.884Z,100504.16
2023-12-08T16:58:28.046Z,100504.30
2023-12-08T17:03:32.135Z,100513.57
2023-12-08T17:08:35.553Z,100514.43
2023-12-08T17:13:39.384Z,100511.06
2023-12-08T17:18:42.954Z,100511.13
2023-12-08T17:23:47.121Z,100509.72
2023-12-08T17:28:50.477Z,100512.36
2023-12-08T17:33:57.045Z,100515.73
2023-12-08T17:39:05.378Z,100517.41
2023-12-08T17:44:08.802Z,100520.13
2023-12-08T17:49:12.355Z,100518.57
2023-12-08T17:54:15.964Z,100519.42
2023-12-08T17:59:20.413Z,100524.99
2023-12-08T18:04:23.869Z,100523.77
2023-12-08T18:09:27.499Z,100522.57
2023-12-08T18:14:31.050Z,100526.68
2023-12-08T18:19:34.593Z,100523.31
2023-12-08T18:24:38.571Z,100519.27
2023-12-08T18:29:42.265Z,100517.60
2023-12-08T18:34:45.860Z,100523.13
2023-12-08T18:39:49.445Z,100523.16
2023-12-08T18:44:53.808Z,100522.00
2023-12-08T18:49:57.585Z,100514.03
2023-12-08T18:55:01.589Z,100521.31
2023-12-08T19:00:10.349Z,100526.35
2023-12-08T19:05:14.036Z,100523.85
2023-12-08T19:10:17.981Z,100517.76
2023-12-08T19:15:22.049Z,100517.89
2023-12-08T19:20:27.201Z,100514.67
2023-12-08T19:25:30.716Z,100499.89
2023-12-08T19:30:35.139Z,100492.06
2023-12-08T19:35:39.261Z,100491.17
2023-12-08T19:40:43.383Z,100482.42
2023-12-08T19:45:49.438Z,100475.95
2023-12-08T19:50:53.050Z,100478.76
2023-12-08T19:55:56.816Z,100487.90
2023-12-08T20:01:00.499Z,100486.32
2023-12-08T20:06:04.389Z,100481.58
2023-12-08T20:11:08.403Z,100480.66
2023-12-08T20:16:12.520Z,100473.94
2023-12-08T20:21:16.039Z,100466.84
2023-12-08T20:26:20.501Z,100479.00
2023-12-08T20:31:23.947Z,100477.98
2023-12-08T20:36:27.638Z,100483.23
2023-12-08T20:41:31.850Z,100485.69
2023-12-08T20:46:35.835Z,100493.38
2023-12-08T20:51:39.437Z,100486.35
2023-12-08T20:56:42.973Z,100481.96
2023-12-08T21:01:46.386Z,100482.50
2023-12-08T21:06:52.034Z,100480.05
2023-12-08T21:11:56.955Z,100486.15
2023-12-08T21:17:00.374Z,100490.08
2023-12-08T21:22:05.172Z,100497.30
2023-12-08T21:27:09.293Z,100494.73
2023-12-08T21:32:13.386Z,100491.44
2023-12-08T21:37:17.403Z,100490.27
2023-12-08T21:42:22.008Z,100498.45
2023-12-08T21:47:25.757Z,100500.20
2023-12-08T21:52:29.789Z,100496.41
2023-12-08T21:57:33.188Z,100500.08
2023-12-08T22:02:36.554Z,100505.20
2023-12-08T22:07:39.871Z,100501.34
2023-12-08T22:12:43.308Z,100498.49
2023-12-08T22:17:46.834Z,100490.08
2023-12-08T22:22:50.188Z,100494.07
2023-12-08T22:27:53.535Z,100490.66
2023-12-08T22:32:57.016Z,100495.02
2023-12-08T22:38:00.431Z,100494.55
2023-12-08T22:43:03.819Z,100495.29
2023-12-08T22:48:07.186Z,100493.55
2023-12-08T22:53:10.793Z,100492.16
2023-12-08T22:58:15.061Z,100491.13
2023-12-08T23:03:19.018Z,100484.92
2023-12-08T23:08:22.892Z,100482.31
2023-12-08T23:13:26.602Z,100484.14
2023-12-08T23:18:30.082Z,100489.02
2023-12-08T23:23:33.625Z,100482.94
2023-12-08T23:28:37.059Z,100466.30
2023-12-08T23:33:40.598Z,100461.98
2023-12-08T23:38:44.133Z,100447.42
2023-12-08T23:43:48.642Z,100466.64
2023-12-08T23:48:57.703Z,100474.52
2023-12-08T23:54:01.288Z,100470.08
2023-12-08T23:59:05.080Z,100466.13
